sensor_id;sensor_type;location;lat;lon;timestamp;pressure;altitude;pressure_sealevel;temperature
69785;BMP280;14177;51.520;6.764;2023-04-25T00:02:14;100768.22;;;7.50
69785;BMP280;14177;51.520;6.764;2023-04-25T00:04:41;100766.53;;;7.49
69785;BMP280;14177;51.520;6.764;2023-04-25T00:07:09;100766.53;;;7.49
69785;BMP280;14177;51.520;6.764;2023-04-25T00:09:37;100763.97;;;7.47
69785;BMP280;14177;51.520;6.764;2023-04-25T00:12:04;100760.50;;;7.48
69785;BMP280;14177;51.520;6.764;2023-04-25T00:14:31;100776.84;;;7.49
69785;BMP280;14177;51.520;6.764;2023-04-25T00:17:01;100769.97;;;7.49
69785;BMP280;14177;51.520;6.764;2023-04-25T00:19:29;100758.75;;;7.49
69785;BMP280;14177;51.520;6.764;2023-04-25T00:21:56;100765.59;;;7.53
69785;BMP280;14177;51.520;6.764;2023-04-25T00:24:24;100763.09;;;7.47
69785;BMP280;14177;51.520;6.764;2023-04-25T00:26:51;100773.44;;;7.47
69785;BMP280;14177;51.520;6.764;2023-04-25T00:29:18;100769.16;;;7.47
69785;BMP280;14177;51.520;6.764;2023-04-25T00:31:45;100778.66;;;7.44
69785;BMP280;14177;51.520;6.764;2023-04-25T00:34:12;100774.31;;;7.46
69785;BMP280;14177;51.520;6.764;2023-04-25T00:36:39;100771.75;;;7.46
69785;BMP280;14177;51.520;6.764;2023-04-25T00:39:06;100775.22;;;7.45
69785;BMP280;14177;51.520;6.764;2023-04-25T00:41:33;100771.75;;;7.46
69785;BMP280;14177;51.520;6.764;2023-04-25T00:44:02;100771.75;;;7.46
69785;BMP280;14177;51.520;6.764;2023-04-25T00:46:31;100777.78;;;7.45
69785;BMP280;14177;51.520;6.764;2023-04-25T00:48:58;100771.81;;;7.43
69785;BMP280;14177;51.520;6.764;2023-04-25T00:51:26;100778.72;;;7.41
69785;BMP280;14177;51.520;6.764;2023-04-25T00:53:53;100777.97;;;7.36
69785;BMP280;14177;51.520;6.764;2023-04-25T00:56:21;100778.78;;;7.38
69785;BMP280;14177;51.520;6.764;2023-04-25T00:58:53;100786.63;;;7.33
69785;BMP280;14177;51.520;6.764;2023-04-25T01:01:21;100774.59;;;7.32
69785;BMP280;14177;51.520;6.764;2023-04-25T01:03:49;100774.53;;;7.35
69785;BMP280;14177;51.520;6.764;2023-04-25T01:06:18;100776.28;;;7.33
69785;BMP280;14177;51.520;6.764;2023-04-25T01:08:45;100784.00;;;7.36
69785;BMP280;14177;51.520;6.764;2023-04-25T01:11:12;100786.53;;;7.38
69785;BMP280;14177;51.520;6.764;2023-04-25T01:13:42;100783.06;;;7.39
69785;BMP280;14177;51.520;6.764;2023-04-25T01:16:09;100781.31;;;7.42
69785;BMP280;14177;51.520;6.764;2023-04-25T01:18:40;100790.78;;;7.42
69785;BMP280;14177;51.520;6.764;2023-04-25T01:21:11;100786.47;;;7.42
69785;BMP280;14177;51.520;6.764;2023-04-25T01:23:41;100775.25;;;7.43
69785;BMP280;14177;51.520;6.764;2023-04-25T01:26:10;100778.66;;;7.44
69785;BMP280;14177;51.520;6.764;2023-04-25T01:28:40;100786.41;;;7.45
69785;BMP280;14177;51.520;6.764;2023-04-25T01:31:12;100792.41;;;7.46
69785;BMP280;14177;51.520;6.764;2023-04-25T01:33:40;100798.41;;;7.49
69785;BMP280;14177;51.520;6.764;2023-04-25T01:36:07;100791.50;;;7.50
69785;BMP280;14177;51.520;6.764;2023-04-25T01:38:35;100797.53;;;7.49
69785;BMP280;14177;51.520;6.764;2023-04-25T01:41:02;100801.81;;;7.51
69785;BMP280;14177;51.520;6.764;2023-04-25T01:43:29;100802.75;;;7.47
69785;BMP280;14177;51.520;6.764;2023-04-25T01:45:57;100801.88;;;7.48
69785;BMP280;14177;51.520;6.764;2023-04-25T01:48:24;100804.34;;;7.53
69785;BMP280;14177;51.520;6.764;2023-04-25T01:50:52;100806.94;;;7.54
69785;BMP280;14177;51.520;6.764;2023-04-25T01:53:19;100808.75;;;7.49
69785;BMP280;14177;51.520;6.764;2023-04-25T01:55:47;100809.63;;;7.47
69785;BMP280;14177;51.520;6.764;2023-04-25T01:58:17;100815.56;;;7.53
69785;BMP280;14177;51.520;6.764;2023-04-25T02:01:16;100813.00;;;7.52
69785;BMP280;14177;51.520;6.764;2023-04-25T02:03:52;100816.41;;;7.54
69785;BMP280;14177;51.520;6.764;2023-04-25T02:06:26;100825.03;;;7.53
69785;BMP280;14177;51.520;6.764;2023-04-25T02:08:55;100824.09;;;7.57
69785;BMP280;14177;51.520;6.764;2023-04-25T02:11:23;100814.75;;;7.50
69785;BMP280;14177;51.520;6.764;2023-04-25T02:14:12;100825.09;;;7.50
69785;BMP280;14177;51.520;6.764;2023-04-25T02:16:49;100826.84;;;7.48
69785;BMP280;14177;51.520;6.764;2023-04-25T02:19:18;100824.25;;;7.49
69785;BMP280;14177;51.520;6.764;2023-04-25T02:21:46;100828.56;;;7.49
69785;BMP280;14177;51.520;6.764;2023-04-25T02:24:13;100827.72;;;7.48
69785;BMP280;14177;51.520;6.764;2023-04-25T02:26:40;100827.72;;;7.48
69785;BMP280;14177;51.520;6.764;2023-04-25T02:29:09;100824.25;;;7.49
69785;BMP280;14177;51.520;6.764;2023-04-25T02:31:36;100826.84;;;7.48
69785;BMP280;14177;51.520;6.764;2023-04-25T02:34:03;100835.47;;;7.47
69785;BMP280;14177;51.520;6.764;2023-04-25T02:36:35;100833.78;;;7.46
69785;BMP280;14177;51.520;6.764;2023-04-25T02:39:02;100838.94;;;7.46
69785;BMP280;14177;51.520;6.764;2023-04-25T02:41:29;100841.47;;;7.49
69785;BMP280;14177;51.520;6.764;2023-04-25T02:43:56;100831.97;;;7.51
69785;BMP280;14177;51.520;6.764;2023-04-25T02:46:23;100838.00;;;7.51
69785;BMP280;14177;51.520;6.764;2023-04-25T02:49:05;100844.88;;;7.51
69785;BMP280;14177;51.520;6.764;2023-04-25T02:51:33;100842.34;;;7.49
69785;BMP280;14177;51.520;6.764;2023-04-25T02:54:00;100847.59;;;7.45
69785;BMP280;14177;51.520;6.764;2023-04-25T02:56:28;100845.81;;;7.47
69785;BMP280;14177;51.520;6.764;2023-04-25T02:58:55;100843.34;;;7.42
69785;BMP280;14177;51.520;6.764;2023-04-25T03:01:22;100839.91;;;7.40
69785;BMP280;14177;51.520;6.764;2023-04-25T03:03:49;100842.47;;;7.42
69785;BMP280;14177;51.520;6.764;2023-04-25T03:06:17;100845.03;;;7.43
69785;BMP280;14177;51.520;6.764;2023-04-25T03:08:44;100843.34;;;7.42
69785;BMP280;14177;51.520;6.764;2023-04-25T03:11:11;100839.88;;;7.42
69785;BMP280;14177;51.520;6.764;2023-04-25T03:13:38;100853.66;;;7.42
69785;BMP280;14177;51.520;6.764;2023-04-25T03:16:05;100841.59;;;7.43
69785;BMP280;14177;51.520;6.764;2023-04-25T03:18:33;100845.03;;;7.42
69785;BMP280;14177;51.520;6.764;2023-04-25T03:21:01;100843.34;;;7.41
69785;BMP280;14177;51.520;6.764;2023-04-25T03:23:30;100847.69;;;7.39
69785;BMP280;14177;51.520;6.764;2023-04-25T03:25:57;100858.03;;;7.39
69785;BMP280;14177;51.520;6.764;2023-04-25T03:28:24;100854.66;;;7.34
69785;BMP280;14177;51.520;6.764;2023-04-25T03:30:52;100849.53;;;7.31
69785;BMP280;14177;51.520;6.764;2023-04-25T03:33:21;100859.88;;;7.31
69785;BMP280;14177;51.520;6.764;2023-04-25T03:35:49;100854.78;;;7.28
69785;BMP280;14177;51.520;6.764;2023-04-25T03:38:17;100849.66;;;7.25
69785;BMP280;14177;51.520;6.764;2023-04-25T03:40:45;100847.03;;;7.26
69785;BMP280;14177;51.520;6.764;2023-04-25T03:43:38;100860.88;;;7.24
69785;BMP280;14177;51.520;6.764;2023-04-25T03:46:09;100854.06;;;7.20
69785;BMP280;14177;51.520;6.764;2023-04-25T03:48:38;100861.81;;;7.18
69785;BMP280;14177;51.520;6.764;2023-04-25T03:51:06;100859.22;;;7.18
69785;BMP280;14177;51.520;6.764;2023-04-25T03:53:37;100873.03;;;7.18
69785;BMP280;14177;51.520;6.764;2023-04-25T03:56:30;100868.81;;;7.12
69785;BMP280;14177;51.520;6.764;2023-04-25T03:59:04;100861.91;;;7.13
69785;BMP280;14177;51.520;6.764;2023-04-25T04:01:31;100858.50;;;7.12
69785;BMP280;14177;51.520;6.764;2023-04-25T04:03:58;100873.13;;;7.13
69785;BMP280;14177;51.520;6.764;2023-04-25T04:06:26;100870.63;;;7.07
69785;BMP280;14177;51.520;6.764;2023-04-25T04:09:01;100869.78;;;7.05
69785;BMP280;14177;51.520;6.764;2023-04-25T04:11:31;100880.16;;;7.02
69785;BMP280;14177;51.520;6.764;2023-04-25T04:13:59;100881.03;;;7.01
69785;BMP280;14177;51.520;6.764;2023-04-25T04:16:26;100887.91;;;7.02
69785;BMP280;14177;51.520;6.764;2023-04-25T04:18:53;100887.13;;;6.97
69785;BMP280;14177;51.520;6.764;2023-04-25T04:21:20;100892.31;;;6.96
69785;BMP280;14177;51.520;6.764;2023-04-25T04:23:47;100895.72;;;6.98
69785;BMP280;14177;51.520;6.764;2023-04-25T04:26:15;100894.91;;;6.94
69785;BMP280;14177;51.520;6.764;2023-04-25T04:28:56;100894.94;;;6.93
69785;BMP280;14177;51.520;6.764;2023-04-25T04:31:40;100896.72;;;6.89
69785;BMP280;14177;51.520;6.764;2023-04-25T04:34:07;100897.59;;;6.88
69785;BMP280;14177;51.520;6.764;2023-04-25T04:36:34;100897.63;;;6.87
69785;BMP280;14177;51.520;6.764;2023-04-25T04:39:01;100893.34;;;6.84
69785;BMP280;14177;51.520;6.764;2023-04-25T04:41:42;100906.25;;;6.84
69785;BMP280;14177;51.520;6.764;2023-04-25T04:44:29;100909.72;;;6.83
69785;BMP280;14177;51.520;6.764;2023-04-25T04:47:38;100914.03;;;6.81
69785;BMP280;14177;51.520;6.764;2023-04-25T04:50:23;100911.56;;;6.74
69785;BMP280;14177;51.520;6.764;2023-04-25T04:53:09;100916.78;;;6.71
69785;BMP280;14177;51.520;6.764;2023-04-25T04:55:58;100913.38;;;6.67
69785;BMP280;14177;51.520;6.764;2023-04-25T04:58:36;100915.97;;;6.66
69785;BMP280;14177;51.520;6.764;2023-04-25T05:01:15;100922.06;;;6.62
69785;BMP280;14177;51.520;6.764;2023-04-25T05:04:15;100929.78;;;6.62
69785;BMP280;14177;51.520;6.764;2023-04-25T05:06:42;100928.06;;;6.62
69785;BMP280;14177;51.520;6.764;2023-04-25T05:09:32;100924.59;;;6.63
69785;BMP280;14177;51.520;6.764;2023-04-25T05:12:24;100933.19;;;6.65
69785;BMP280;14177;51.520;6.764;2023-04-25T05:15:02;100941.81;;;6.64
69785;BMP280;14177;51.520;6.764;2023-04-25T05:17:47;100943.56;;;6.61
69785;BMP280;14177;51.520;6.764;2023-04-25T05:20:17;100948.72;;;6.64
69785;BMP280;14177;51.520;6.764;2023-04-25T05:23:04;100949.50;;;6.67
69785;BMP280;14177;51.520;6.764;2023-04-25T05:25:49;100955.47;;;6.72
69785;BMP280;14177;51.520;6.764;2023-04-25T05:28:40;100958.88;;;6.74
69785;BMP280;14177;51.520;6.764;2023-04-25T05:31:27;100963.09;;;6.83
69785;BMP280;14177;51.520;6.764;2023-04-25T05:34:02;100967.38;;;6.82
69785;BMP280;14177;51.520;6.764;2023-04-25T05:36:41;100973.41;;;6.84
69785;BMP280;14177;51.520;6.764;2023-04-25T05:39:08;100969.06;;;6.88
69785;BMP280;14177;51.520;6.764;2023-04-25T05:41:54;100960.41;;;6.90
69785;BMP280;14177;51.520;6.764;2023-04-25T05:44:41;100974.94;;;6.97
69785;BMP280;14177;51.520;6.764;2023-04-25T05:47:37;100979.16;;;7.04
69785;BMP280;14177;51.520;6.764;2023-04-25T05:50:13;100985.16;;;7.06
69785;BMP280;14177;51.520;6.764;2023-04-25T05:52:50;100985.94;;;7.11
69785;BMP280;14177;51.520;6.764;2023-04-25T05:55:24;100997.97;;;7.15
69785;BMP280;14177;51.520;6.764;2023-04-25T05:57:51;101001.28;;;7.23
69785;BMP280;14177;51.520;6.764;2023-04-25T06:00:19;101003.78;;;7.27
69785;BMP280;14177;51.520;6.764;2023-04-25T06:02:49;101007.16;;;7.32
69785;BMP280;14177;51.520;6.764;2023-04-25T06:05:17;101007.97;;;7.36
69785;BMP280;14177;51.520;6.764;2023-04-25T06:07:46;101007.09;;;7.38
69785;BMP280;14177;51.520;6.764;2023-04-25T06:10:14;101015.53;;;7.48
69785;BMP280;14177;51.520;6.764;2023-04-25T06:12:42;101014.50;;;7.61
69785;BMP280;14177;51.520;6.764;2023-04-25T06:15:10;101014.28;;;7.74
69785;BMP280;14177;51.520;6.764;2023-04-25T06:17:53;101013.38;;;7.77
69785;BMP280;14177;51.520;6.764;2023-04-25T06:20:21;101019.28;;;7.85
69785;BMP280;14177;51.520;6.764;2023-04-25T06:22:51;101019.19;;;7.91
69785;BMP280;14177;51.520;6.764;2023-04-25T06:25:22;101020.84;;;7.95
69785;BMP280;14177;51.520;6.764;2023-04-25T06:27:50;101011.94;;;8.11
69785;BMP280;14177;51.520;6.764;2023-04-25T06:30:17;101019.50;;;8.24
69785;BMP280;14177;51.520;6.764;2023-04-25T06:32:53;101016.81;;;8.30
69785;BMP280;14177;51.520;6.764;2023-04-25T06:35:21;101022.75;;;8.35
69785;BMP280;14177;51.520;6.764;2023-04-25T06:37:48;101017.81;;;8.23
69785;BMP280;14177;51.520;6.764;2023-04-25T06:40:18;101023.97;;;8.13
69785;BMP280;14177;51.520;6.764;2023-04-25T06:42:45;101019.78;;;8.06
69785;BMP280;14177;51.520;6.764;2023-04-25T06:45:41;101029.34;;;8.01
69785;BMP280;14177;51.520;6.764;2023-04-25T06:48:10;101023.25;;;8.05
69785;BMP280;14177;51.520;6.764;2023-04-25T06:50:37;101022.28;;;8.11
69785;BMP280;14177;51.520;6.764;2023-04-25T06:53:04;101017.09;;;8.12
69785;BMP280;14177;51.520;6.764;2023-04-25T06:55:31;101020.53;;;8.13
69785;BMP280;14177;51.520;6.764;2023-04-25T06:58:13;101029.97;;;8.18
69785;BMP280;14177;51.520;6.764;2023-04-25T07:00:58;101033.34;;;8.23
69785;BMP280;14177;51.520;6.764;2023-04-25T07:03:26;101033.38;;;8.20
69785;BMP280;14177;51.520;6.764;2023-04-25T07:06:00;101036.00;;;8.16
69785;BMP280;14177;51.520;6.764;2023-04-25T07:08:29;101050.56;;;8.23
69785;BMP280;14177;51.520;6.764;2023-04-25T07:10:58;101042.50;;;8.41
69785;BMP280;14177;51.520;6.764;2023-04-25T07:13:25;101036.81;;;8.67
69785;BMP280;14177;51.520;6.764;2023-04-25T07:15:52;101046.66;;;8.93
69785;BMP280;14177;51.520;6.764;2023-04-25T07:18:22;101042.19;;;9.01
69785;BMP280;14177;51.520;6.764;2023-04-25T07:20:50;101048.84;;;9.12
69785;BMP280;14177;51.520;6.764;2023-04-25T07:23:18;101054.78;;;9.17
69785;BMP280;14177;51.520;6.764;2023-04-25T07:25:46;101054.75;;;9.19
69785;BMP280;14177;51.520;6.764;2023-04-25T07:28:18;101051.06;;;9.30
69785;BMP280;14177;51.520;6.764;2023-04-25T07:30:47;101053.44;;;9.39
69785;BMP280;14177;51.520;6.764;2023-04-25T07:33:14;101062.63;;;9.52
69785;BMP280;14177;51.520;6.764;2023-04-25T07:35:41;101064.25;;;9.58
69785;BMP280;14177;51.520;6.764;2023-04-25T07:38:09;101055.53;;;9.60
69785;BMP280;14177;51.520;6.764;2023-04-25T07:40:37;101055.47;;;9.64
69785;BMP280;14177;51.520;6.764;2023-04-25T07:43:07;101059.47;;;9.77
69785;BMP280;14177;51.520;6.764;2023-04-25T07:45:46;101063.53;;;9.89
69785;BMP280;14177;51.520;6.764;2023-04-25T07:48:18;101067.69;;;9.96
69785;BMP280;14177;51.520;6.764;2023-04-25T07:50:46;101071.03;;;9.99
69785;BMP280;14177;51.520;6.764;2023-04-25T07:53:14;101064.09;;;10.01
69785;BMP280;14177;51.520;6.764;2023-04-25T07:55:50;101068.38;;;10.04
69785;BMP280;14177;51.520;6.764;2023-04-25T07:58:19;101066.47;;;10.12
69785;BMP280;14177;51.520;6.764;2023-04-25T08:00:53;101083.75;;;10.13
69785;BMP280;14177;51.520;6.764;2023-04-25T08:03:29;101086.19;;;10.19
69785;BMP280;14177;51.520;6.764;2023-04-25T08:05:57;101087.56;;;10.32
69785;BMP280;14177;51.520;6.764;2023-04-25T08:08:29;101093.41;;;10.41
69785;BMP280;14177;51.520;6.764;2023-04-25T08:10:57;101086.81;;;10.60
69785;BMP280;14177;51.520;6.764;2023-04-25T08:13:24;101093.56;;;10.67
69785;BMP280;14177;51.520;6.764;2023-04-25T08:15:52;101085.28;;;10.85
69785;BMP280;14177;51.520;6.764;2023-04-25T08:18:20;101096.41;;;10.90
69785;BMP280;14177;51.520;6.764;2023-04-25T08:20:48;101100.84;;;10.87
69785;BMP280;14177;51.520;6.764;2023-04-25T08:23:15;101102.56;;;10.88
69785;BMP280;14177;51.520;6.764;2023-04-25T08:26:00;101109.16;;;10.99
69785;BMP280;14177;51.520;6.764;2023-04-25T08:28:29;101106.34;;;11.06
69785;BMP280;14177;51.520;6.764;2023-04-25T08:30:58;101106.59;;;11.28
69785;BMP280;14177;51.520;6.764;2023-04-25T08:33:32;101109.44;;;11.49
69785;BMP280;14177;51.520;6.764;2023-04-25T08:36:26;101112.19;;;11.74
69785;BMP280;14177;51.520;6.764;2023-04-25T08:39:16;101123.53;;;11.71
69785;BMP280;14177;51.520;6.764;2023-04-25T08:42:00;101119.53;;;11.60
69785;BMP280;14177;51.520;6.764;2023-04-25T08:44:30;101124.75;;;11.60
69785;BMP280;14177;51.520;6.764;2023-04-25T08:46:59;101132.63;;;11.57
69785;BMP280;14177;51.520;6.764;2023-04-25T08:49:33;101142.03;;;11.62
69785;BMP280;14177;51.520;6.764;2023-04-25T08:52:03;101140.34;;;11.61
69785;BMP280;14177;51.520;6.764;2023-04-25T08:54:35;101137.84;;;11.57
69785;BMP280;14177;51.520;6.764;2023-04-25T08:57:07;101136.19;;;11.53
69785;BMP280;14177;51.520;6.764;2023-04-25T08:59:35;101140.03;;;11.70
69785;BMP280;14177;51.520;6.764;2023-04-25T09:02:07;101148.09;;;11.90
69785;BMP280;14177;51.520;6.764;2023-04-25T09:04:36;101150.44;;;11.99
69785;BMP280;14177;51.520;6.764;2023-04-25T09:07:04;101160.41;;;12.12
69785;BMP280;14177;51.520;6.764;2023-04-25T09:09:31;101164.00;;;12.36
69785;BMP280;14177;51.520;6.764;2023-04-25T09:12:00;101165.06;;;12.56
69785;BMP280;14177;51.520;6.764;2023-04-25T09:14:28;101170.00;;;12.64
69785;BMP280;14177;51.520;6.764;2023-04-25T09:17:05;101167.66;;;12.56
69785;BMP280;14177;51.520;6.764;2023-04-25T09:19:37;101177.88;;;12.62
69785;BMP280;14177;51.520;6.764;2023-04-25T09:22:17;101177.22;;;12.56
69785;BMP280;14177;51.520;6.764;2023-04-25T09:24:45;101172.88;;;12.56
69785;BMP280;14177;51.520;6.764;2023-04-25T09:27:19;101171.25;;;12.78
69785;BMP280;14177;51.520;6.764;2023-04-25T09:29:59;101174.13;;;12.97
69785;BMP280;14177;51.520;6.764;2023-04-25T09:32:44;101173.72;;;13.32
69785;BMP280;14177;51.520;6.764;2023-04-25T09:35:24;101176.63;;;13.93
69785;BMP280;14177;51.520;6.764;2023-04-25T09:37:59;101177.78;;;14.30
69785;BMP280;14177;51.520;6.764;2023-04-25T09:41:03;101178.84;;;14.67
69785;BMP280;14177;51.520;6.764;2023-04-25T09:43:38;101172.84;;;14.85
69785;BMP280;14177;51.520;6.764;2023-04-25T09:46:10;101168.59;;;15.03
69785;BMP280;14177;51.520;6.764;2023-04-25T09:48:49;101174.22;;;15.14
69785;BMP280;14177;51.520;6.764;2023-04-25T09:51:26;101181.19;;;15.13
69785;BMP280;14177;51.520;6.764;2023-04-25T09:53:56;101180.41;;;14.71
69785;BMP280;14177;51.520;6.764;2023-04-25T09:56:37;101185.56;;;14.53
69785;BMP280;14177;51.520;6.764;2023-04-25T09:59:08;101184.28;;;14.83
69785;BMP280;14177;51.520;6.764;2023-04-25T10:01:40;101184.09;;;15.07
69785;BMP280;14177;51.520;6.764;2023-04-25T10:04:18;101189.00;;;15.35
69785;BMP280;14177;51.520;6.764;2023-04-25T10:07:08;101193.06;;;15.22
69785;BMP280;14177;51.520;6.764;2023-04-25T10:09:40;101190.50;;;14.59
69785;BMP280;14177;51.520;6.764;2023-04-25T10:12:08;101190.78;;;14.32
69785;BMP280;14177;51.520;6.764;2023-04-25T10:14:35;101207.19;;;14.12
69785;BMP280;14177;51.520;6.764;2023-04-25T10:17:03;101209.69;;;13.94
69785;BMP280;14177;51.520;6.764;2023-04-25T10:19:31;101212.06;;;13.77
69785;BMP280;14177;51.520;6.764;2023-04-25T10:22:13;101209.16;;;13.84
69785;BMP280;14177;51.520;6.764;2023-04-25T10:24:42;101216.88;;;13.87
69785;BMP280;14177;51.520;6.764;2023-04-25T10:27:10;101217.34;;;13.75
69785;BMP280;14177;51.520;6.764;2023-04-25T10:29:38;101217.72;;;13.65
69785;BMP280;14177;51.520;6.764;2023-04-25T10:32:05;101225.66;;;13.39
69785;BMP280;14177;51.520;6.764;2023-04-25T10:34:43;101234.44;;;13.12
69785;BMP280;14177;51.520;6.764;2023-04-25T10:37:15;101248.09;;;12.67
69785;BMP280;14177;51.520;6.764;2023-04-25T10:39:42;101247.94;;;12.18
69785;BMP280;14177;51.520;6.764;2023-04-25T10:42:11;101245.59;;;11.80
69785;BMP280;14177;51.520;6.764;2023-04-25T10:44:38;101259.47;;;11.49
69785;BMP280;14177;51.520;6.764;2023-04-25T10:47:07;101258.22;;;11.31
69785;BMP280;14177;51.520;6.764;2023-04-25T10:49:43;101242.91;;;11.21
69785;BMP280;14177;51.520;6.764;2023-04-25T10:52:26;101249.00;;;11.18
69785;BMP280;14177;51.520;6.764;2023-04-25T10:54:58;101248.03;;;11.22
69785;BMP280;14177;51.520;6.764;2023-04-25T10:57:42;101252.13;;;11.32
69785;BMP280;14177;51.520;6.764;2023-04-25T11:00:16;101257.88;;;11.43
69785;BMP280;14177;51.520;6.764;2023-04-25T11:05:23;101253.97;;;11.61
69785;BMP280;14177;51.520;6.764;2023-04-25T11:07:54;101244.06;;;11.73
69785;BMP280;14177;51.520;6.764;2023-04-25T11:10:32;101246.31;;;11.85
69785;BMP280;14177;51.520;6.764;2023-04-25T11:13:00;101248.38;;;12.03
69785;BMP280;14177;51.520;6.764;2023-04-25T11:15:27;101240.94;;;12.20
69785;BMP280;14177;51.520;6.764;2023-04-25T11:17:55;101247.47;;;12.33
69785;BMP280;14177;51.520;6.764;2023-04-25T11:20:26;101252.09;;;12.23
69785;BMP280;14177;51.520;6.764;2023-04-25T11:22:58;101247.84;;;12.21
69785;BMP280;14177;51.520;6.764;2023-04-25T11:25:27;101248.84;;;12.17
69785;BMP280;14177;51.520;6.764;2023-04-25T11:27:58;101247.75;;;12.24
69785;BMP280;14177;51.520;6.764;2023-04-25T11:30:28;101248.47;;;12.00
69785;BMP280;14177;51.520;6.764;2023-04-25T11:32:57;101246.94;;;11.93
69785;BMP280;14177;51.520;6.764;2023-04-25T11:35:25;101246.19;;;11.90
69785;BMP280;14177;51.520;6.764;2023-04-25T11:37:52;101251.44;;;11.88
69785;BMP280;14177;51.520;6.764;2023-04-25T11:40:20;101248.19;;;11.80
69785;BMP280;14177;51.520;6.764;2023-04-25T11:42:47;101261.66;;;11.65
69785;BMP280;14177;51.520;6.764;2023-04-25T11:45:15;101252.84;;;11.37
69785;BMP280;14177;51.520;6.764;2023-04-25T11:47:42;101247.06;;;11.26
69785;BMP280;14177;51.520;6.764;2023-04-25T11:50:10;101253.31;;;11.21
69785;BMP280;14177;51.520;6.764;2023-04-25T11:52:45;101261.09;;;11.21
69785;BMP280;14177;51.520;6.764;2023-04-25T11:55:16;101249.00;;;11.18
69785;BMP280;14177;51.520;6.764;2023-04-25T11:57:47;101262.09;;;11.15
69785;BMP280;14177;51.520;6.764;2023-04-25T12:00:20;101265.41;;;11.22
69785;BMP280;14177;51.520;6.764;2023-04-25T12:02:56;101259.53;;;11.47
69785;BMP280;14177;51.520;6.764;2023-04-25T12:05:32;101263.25;;;11.69
69785;BMP280;14177;51.520;6.764;2023-04-25T12:08:15;101263.16;;;11.72
69785;BMP280;14177;51.520;6.764;2023-04-25T12:10:45;101255.06;;;12.11
69785;BMP280;14177;51.520;6.764;2023-04-25T12:13:26;101250.19;;;12.56
69785;BMP280;14177;51.520;6.764;2023-04-25T12:15:55;101247.94;;;12.99
69785;BMP280;14177;51.520;6.764;2023-04-25T12:18:24;101253.66;;;13.58
69785;BMP280;14177;51.520;6.764;2023-04-25T12:20:55;101246.75;;;13.80
69785;BMP280;14177;51.520;6.764;2023-04-25T12:23:28;101241.34;;;13.85
69785;BMP280;14177;51.520;6.764;2023-04-25T12:25:56;101248.09;;;14.13
69785;BMP280;14177;51.520;6.764;2023-04-25T12:28:25;101234.47;;;14.71
69785;BMP280;14177;51.520;6.764;2023-04-25T12:31:06;101230.78;;;15.16
69785;BMP280;14177;51.520;6.764;2023-04-25T12:33:37;101226.16;;;15.63
69785;BMP280;14177;51.520;6.764;2023-04-25T12:36:06;101227.16;;;15.79
69785;BMP280;14177;51.520;6.764;2023-04-25T12:38:41;101224.84;;;15.33
69785;BMP280;14177;51.520;6.764;2023-04-25T12:41:08;101242.31;;;14.71
69785;BMP280;14177;51.520;6.764;2023-04-25T12:43:39;101266.50;;;14.10
69785;BMP280;14177;51.520;6.764;2023-04-25T12:46:06;101271.03;;;13.59
69785;BMP280;14177;51.520;6.764;2023-04-25T12:48:33;101281.22;;;13.17
69785;BMP280;14177;51.520;6.764;2023-04-25T12:51:00;101284.84;;;12.85
69785;BMP280;14177;51.520;6.764;2023-04-25T12:53:28;101289.16;;;12.60
69785;BMP280;14177;51.520;6.764;2023-04-25T12:55:55;101293.88;;;12.48
69785;BMP280;14177;51.520;6.764;2023-04-25T12:58:22;101291.47;;;12.42
69785;BMP280;14177;51.520;6.764;2023-04-25T13:00:50;101295.69;;;12.46
69785;BMP280;14177;51.520;6.764;2023-04-25T13:03:17;101287.75;;;12.76
69785;BMP280;14177;51.520;6.764;2023-04-25T13:05:45;101280.59;;;13.34
69785;BMP280;14177;51.520;6.764;2023-04-25T13:08:12;101283.66;;;13.71
69785;BMP280;14177;51.520;6.764;2023-04-25T13:10:39;101272.19;;;14.44
69785;BMP280;14177;51.520;6.764;2023-04-25T13:13:06;101267.06;;;14.84
69785;BMP280;14177;51.520;6.764;2023-04-25T13:15:33;101261.66;;;14.88
69785;BMP280;14177;51.520;6.764;2023-04-25T13:18:01;101270.78;;;15.20
69785;BMP280;14177;51.520;6.764;2023-04-25T13:20:28;101268.53;;;15.52
69785;BMP280;14177;51.520;6.764;2023-04-25T13:22:55;101269.72;;;15.45
69785;BMP280;14177;51.520;6.764;2023-04-25T13:25:22;101268.06;;;15.43
69785;BMP280;14177;51.520;6.764;2023-04-25T13:27:49;101250.38;;;15.68
69785;BMP280;14177;51.520;6.764;2023-04-25T13:30:16;101256.34;;;15.89
69785;BMP280;14177;51.520;6.764;2023-04-25T13:32:43;101257.50;;;16.21
69785;BMP280;14177;51.520;6.764;2023-04-25T13:35:12;101261.25;;;16.52
69785;BMP280;14177;51.520;6.764;2023-04-25T13:37:40;101266.69;;;16.66
69785;BMP280;14177;51.520;6.764;2023-04-25T13:40:10;101261.16;;;16.54
69785;BMP280;14177;51.520;6.764;2023-04-25T13:42:39;101260.59;;;16.10
69785;BMP280;14177;51.520;6.764;2023-04-25T13:45:07;101256.06;;;15.95
69785;BMP280;14177;51.520;6.764;2023-04-25T13:47:35;101243.75;;;16.16
69785;BMP280;14177;51.520;6.764;2023-04-25T13:50:03;101256.34;;;16.26
69785;BMP280;14177;51.520;6.764;2023-04-25T13:52:32;101263.03;;;16.33
69785;BMP280;14177;51.520;6.764;2023-04-25T13:54:59;101251.34;;;16.22
69785;BMP280;14177;51.520;6.764;2023-04-25T13:57:27;101254.59;;;16.45
69785;BMP280;14177;51.520;6.764;2023-04-25T13:59:54;101256.44;;;16.79
69785;BMP280;14177;51.520;6.764;2023-04-25T14:02:21;101258.84;;;17.00
69785;BMP280;14177;51.520;6.764;2023-04-25T14:04:48;101253.50;;;16.68
69785;BMP280;14177;51.520;6.764;2023-04-25T14:07:15;101258.06;;;16.09
69785;BMP280;14177;51.520;6.764;2023-04-25T14:09:43;101261.84;;;15.65
69785;BMP280;14177;51.520;6.764;2023-04-25T14:12:10;101267.81;;;15.29
69785;BMP280;14177;51.520;6.764;2023-04-25T14:14:37;101261.44;;;14.93
69785;BMP280;14177;51.520;6.764;2023-04-25T14:17:05;101276.28;;;14.51
69785;BMP280;14177;51.520;6.764;2023-04-25T14:19:33;101273.94;;;14.21
69785;BMP280;14177;51.520;6.764;2023-04-25T14:22:00;101269.44;;;14.01
69785;BMP280;14177;51.520;6.764;2023-04-25T14:24:27;101269.56;;;13.98
69785;BMP280;14177;51.520;6.764;2023-04-25T14:26:54;101279.59;;;14.33
69785;BMP280;14177;51.520;6.764;2023-04-25T14:29:21;101277.53;;;14.62
69785;BMP280;14177;51.520;6.764;2023-04-25T14:31:48;101279.69;;;14.53